1913 NOT_NAMED (1913096S12148)


IBTrACS version v04r00. Visit IBTrACS website for data access.
Please direct all questions to the IBTrACS Q and A forum

Storm track - Intensity - Wind Radii - Intensity Data - Source Data - All data

Summary Information

Storm ID 1913096S12148
Start Apr 5 23Z
End Apr 9 23Z
ATCF IDs
Track status Best track data.

Storm track plot

Map of storm track

Intensity plots

No Intensity information for this storm


Radial wind information

No radial wind information for this storm


Position and Intensity Table

BASIN ISO_TIME_________ NATURE LAT LON
degrees north degrees east
SP 1913-04-05 23:00:00 NR -12.20 148.00
SP 1913-04-06 00:00:00 NR -12.53 148.18
SP 03:00:00 NR -13.52 148.72
SP 06:00:00 NR -14.48 149.24
SP 09:00:00 NR -15.41 149.72
SP 11:00:00 NR -16.00 150.00
SP 12:00:00 NR -16.29 150.13
SP 15:00:00 NR -17.10 150.48
SP 18:00:00 NR -17.86 150.79
SP 21:00:00 NR -18.56 151.09
SP 23:00:00 NR -19.00 151.30
SP 1913-04-07 00:00:00 NR -19.22 151.41
SP 03:00:00 NR -19.85 151.75
SP 06:00:00 NR -20.43 152.11
SP 09:00:00 NR -20.96 152.51
SP 11:00:00 NR -21.30 152.80
SP 12:00:00 NR -21.47 152.97
SP 15:00:00 NR -21.94 153.53
SP 18:00:00 NR -22.38 154.12
SP 21:00:00 NR -22.81 154.67
SP 23:00:00 NR -23.10 155.00
SP 1913-04-08 00:00:00 NR -23.25 155.14
SP 03:00:00 NR -23.72 155.50
SP 06:00:00 NR -24.17 155.79
SP 09:00:00 NR -24.62 156.04
SP 11:00:00 NR -24.90 156.20
SP 12:00:00 NR -25.03 156.29
SP 15:00:00 NR -25.41 156.53
SP 18:00:00 NR -25.77 156.75
SP 21:00:00 NR -26.14 156.96
SP 23:00:00 NR -26.40 157.10
SP 1913-04-09 00:00:00 NR -26.55 157.17
SP 03:00:00 NR -27.01 157.36
SP 06:00:00 NR -27.49 157.55
SP 09:00:00 NR -27.93 157.75
SP 11:00:00 NR -28.20 157.90
SP 12:00:00 NR -28.32 157.98
SP 15:00:00 NR -28.64 158.23
SP 18:00:00 NR -28.91 158.51
SP 21:00:00 NR -29.15 158.80
SP 23:00:00 NR -29.30 159.00

Source Information

Agency Information
USA
TOKYO
CMA
HKO
NEWDELHI
REUNION
BOM
NADI
WELLINGTON
DS824
TD9636 cons_worldwide_trop_cyclone_18710101-19891231-006:Line=718
TD9635
NEUMANN
MLC

All available IBTrACS Data

SEASON BASIN SUBBASIN ISO_TIME_________ NATURE LAT LON DIST2LAND LANDFALL IFLAG USA SSHS TD9636 LAT TD9636 LON TD9636 STAGE STORM SPEED STORM DIR
Year degrees north degrees east km km 1 degrees north degrees east kts degrees
1913 SP EA 1913-04-05 23:00:00 NR -12.20 148.00 223 223 __________O___ -1 -12.20 148.00 7 23 152
1913 SP EA 1913-04-06 00:00:00 NR -12.53 148.18 258 258 __________P___ -1 -12.53 148.18 7 23 152
1913 SP EA 03:00:00 NR -13.52 148.72 350 350 __________P___ -1 -13.52 148.72 7 22 152
1913 SP EA 06:00:00 NR -14.48 149.24 418 418 __________P___ -1 -14.48 149.24 7 21 153
1913 SP EA 09:00:00 NR -15.41 149.72 443 437 __________P___ -1 -15.41 149.72 7 20 154
1913 SP EA 11:00:00 NR -16.00 150.00 444 440 __________O___ -1 -16.00 150.00 7 19 156
1913 SP EA 12:00:00 NR -16.29 150.13 443 398 __________P___ -1 -16.29 150.13 7 18 157
1913 SP EA 15:00:00 NR -17.10 150.48 398 349 __________P___ -1 -17.10 150.48 7 17 158
1913 SP EA 18:00:00 NR -17.86 150.79 340 313 __________P___ -1 -17.86 150.79 7 16 158
1913 SP EA 21:00:00 NR -18.56 151.09 307 296 __________P___ -1 -18.56 151.09 7 15 157
1913 SP EA 23:00:00 NR -19.00 151.30 299 294 __________O___ -1 -19.00 151.30 7 15 155
1913 SP EA 1913-04-07 00:00:00 NR -19.22 151.41 298 293 __________P___ -1 -19.22 151.41 7 14 153
1913 SP EA 03:00:00 NR -19.85 151.75 298 266 __________P___ -1 -19.85 151.75 7 14 151
1913 SP EA 06:00:00 NR -20.43 152.11 266 242 __________P___ -1 -20.43 152.11 7 13 147
1913 SP EA 09:00:00 NR -20.96 152.51 242 242 __________P___ -1 -20.96 152.51 7 13 143
1913 SP EA 11:00:00 NR -21.30 152.80 246 246 __________O___ -1 -21.30 152.80 7 13 139
1913 SP EA 12:00:00 NR -21.47 152.97 252 252 __________P___ -1 -21.47 152.97 7 14 133
1913 SP EA 15:00:00 NR -21.94 153.53 285 280 __________P___ -1 -21.94 153.53 7 14 131
1913 SP EA 18:00:00 NR -22.38 154.12 280 259 __________P___ -1 -22.38 154.12 7 14 130
1913 SP EA 21:00:00 NR -22.81 154.67 265 252 __________P___ -1 -22.81 154.67 7 13 131
1913 SP EA 23:00:00 NR -23.10 155.00 256 248 __________O___ -1 -23.10 155.00 7 12 136
1913 SP EA 1913-04-08 00:00:00 NR -23.25 155.14 247 247 __________P___ -1 -23.25 155.14 7 12 143
1913 SP EA 03:00:00 NR -23.72 155.50 254 249 __________P___ -1 -23.72 155.50 7 11 147
1913 SP EA 06:00:00 NR -24.17 155.79 258 258 __________P___ -1 -24.17 155.79 7 10 151
1913 SP EA 09:00:00 NR -24.62 156.04 266 266 __________P___ -1 -24.62 156.04 7 10 153
1913 SP EA 11:00:00 NR -24.90 156.20 282 281 __________O___ -1 -24.90 156.20 7 9 152
1913 SP EA 12:00:00 NR -25.03 156.29 292 292 __________P___ -1 -25.03 156.29 7 9 150
1913 SP EA 15:00:00 NR -25.41 156.53 314 314 __________P___ -1 -25.41 156.53 7 9 150
1913 SP EA 18:00:00 NR -25.77 156.75 352 352 __________P___ -1 -25.77 156.75 7 8 152
1913 SP EA 21:00:00 NR -26.14 156.96 381 381 __________P___ -1 -26.14 156.96 7 8 154
1913 SP EA 23:00:00 NR -26.40 157.10 394 392 __________O___ -1 -26.40 157.10 7 9 156
1913 SP EA 1913-04-09 00:00:00 NR -26.55 157.17 401 388 __________P___ -1 -26.55 157.17 7 10 159
1913 SP EA 03:00:00 NR -27.01 157.36 397 390 __________P___ -1 -27.01 157.36 7 10 160
1913 SP EA 06:00:00 NR -27.49 157.55 390 390 __________P___ -1 -27.49 157.55 7 10 159
1913 SP EA 09:00:00 NR -27.93 157.75 413 411 __________P___ -1 -27.93 157.75 7 9 157
1913 SP EA 11:00:00 NR -28.20 157.90 420 420 __________O___ -1 -28.20 157.90 7 9 153
1913 SP EA 12:00:00 NR -28.32 157.98 430 430 __________P___ -1 -28.32 157.98 7 8 146
1913 SP EA 15:00:00 NR -28.64 158.23 448 448 __________P___ -1 -28.64 158.23 7 8 142
1913 SP EA 18:00:00 NR -28.91 158.51 476 476 __________P___ -1 -28.91 158.51 7 7 136
1913 SP EA 21:00:00 NR -29.15 158.80 505 505 __________P___ -1 -29.15 158.80 7 7 132
1913 SP EA 23:00:00 NR -29.30 159.00 525 __________O___ -1 -29.30 159.00 7 7 131